Virtual United States Air Force

 METAR AND TAF INFORMATION
METAR FOR KRND
ADDS - METARS form results

(0809 UTC 26 January 2022)
Data provider http://aviationweather.gov/metar/data/
 
METAR text: KRND 260801Z AUTO 04009KT 10SM SCT011 BKN019 OVC025 10/09 A3019 RMK AO2 CIG 013 RWY15L SLP223
Conditions at: KRND (RANDOLPH AFB , TX, US) observed 0801 UTC 26 January 2022
Temperature: 10.0°C (50°F)
Dewpoint: 9.0°C (48°F) [RH = 93%]
Pressure (altimeter): 30.19 inches Hg (1022.4 mb)
[Sea-level pressure: 1022.3 mb]
Winds: from the NE (40 degrees) at 10 MPH (9 knots; 4.6 m/s)
Visibility: 10 or more miles (16+ km)
Ceiling: 1900 feet AGL
Clouds: scattered clouds at 1100 feet AGL
broken clouds at 1900 feet AGL
overcast cloud deck at 2500 feet AGL
Weather: automated observation with no human augmentation;
there may or may not be significant weather present at this time

METAR text: KRND 260756Z AUTO 04009KT 10SM OVC022 10/09 A3019 RMK AO2 CIG 021 RWY15L CIG 020 RWY15R SLP223 T01000094
Conditions at: KRND (RANDOLPH AFB , TX, US) observed 0756 UTC 26 January 2022
Temperature: 10.0°C (50°F)
Dewpoint: 9.4°C (49°F) [RH = 96%]
Pressure (altimeter): 30.19 inches Hg (1022.4 mb)
[Sea-level pressure: 1022.3 mb]
Winds: from the NE (40 degrees) at 10 MPH (9 knots; 4.6 m/s)
Visibility: 10 or more miles (16+ km)
Ceiling: 2200 feet AGL
Clouds: overcast cloud deck at 2200 feet AGL
Weather: automated observation with no human augmentation;
there may or may not be significant weather present at this time

METAR text: KRND 260751Z AUTO 04009KT 10SM OVC022 10/09 A3019 RMK AO2 CIG 019V024 CIG 013 RWY15L CIG 020 RWY15R SLP223
Conditions at: KRND (RANDOLPH AFB , TX, US) observed 0751 UTC 26 January 2022
Temperature: 10.0°C (50°F)
Dewpoint: 9.0°C (48°F) [RH = 93%]
Pressure (altimeter): 30.19 inches Hg (1022.4 mb)
[Sea-level pressure: 1022.3 mb]
Winds: from the NE (40 degrees) at 10 MPH (9 knots; 4.6 m/s)
Visibility: 10 or more miles (16+ km)
Ceiling: 2200 feet AGL
Clouds: overcast cloud deck at 2200 feet AGL
Weather: automated observation with no human augmentation;
there may or may not be significant weather present at this time

METAR text: KRND 260746Z AUTO 04009KT 10SM FEW012 BKN019 OVC024 10/09 A3019 RMK AO2 CIG 019V024 CIG 012 RWY15L CIG 013 RWY15R SLP223
Conditions at: KRND (RANDOLPH AFB , TX, US) observed 0746 UTC 26 January 2022
Temperature: 10.0°C (50°F)
Dewpoint: 9.0°C (48°F) [RH = 93%]
Pressure (altimeter): 30.19 inches Hg (1022.4 mb)
[Sea-level pressure: 1022.3 mb]
Winds: from the NE (40 degrees) at 10 MPH (9 knots; 4.6 m/s)
Visibility: 10 or more miles (16+ km)
Ceiling: 1900 feet AGL
Clouds: few clouds at 1200 feet AGL
broken clouds at 1900 feet AGL
overcast cloud deck at 2400 feet AGL
Weather: automated observation with no human augmentation;
there may or may not be significant weather present at this time

 AIRPORT MAP

 RUNWAY INFORMATION
Runway 14L Runway length 8351 ft Runway width 200 ft
Runway elevation 743 ft Runway displaced threshold 0 ft Runway heading 150
Runway 32R Runway length 8351 ft Runway width 200 ft
Runway elevation 723 ft Runway displaced threshold 0 ft Runway heading 330
Runway 14R Runway length 8353 ft Runway width 200 ft
Runway elevation 762 ft Runway displaced threshold 0 ft Runway heading 150
Runway 32L Runway length 8353 ft Runway width 200 ft
Runway elevation 728 ft Runway displaced threshold 0 ft Runway heading 330

 AIRPORT FREQUENCIES
Type APP Name SAN ANTONI Frequency 39.21 MHZ
Type APP Name SAN ANTONI Frequency 124.45 MHZ
Type ATIS Name ATIS Frequency 27.18 MHZ
Type CLD Name CLNC DEL Frequency 33.835 MHZ
Type DEP Name SAN ANTONI Frequency 127.1 MHZ
Type GND Name GND Frequency 119.75 MHZ
Type INFO Name HANGOVER T Frequency 120.5 MHZ
Type MISC Name HANGOVER G Frequency 124.75 MHZ
Type PMSV Name PMSV METRO Frequency 23.98 MHZ
Type PTD Name PTD Frequency 37.22 MHZ
Type TWR Name TWR Frequency 128.25 MHZ

 AIRPORT NEAR NAVIGATION AIDS


Neither the Department of the Air Force, nor any other component of the Department of Defense or Federal Government has approved, endorsed, or authorized this promotion, activity, or organization. Virtual United States Air Force organization is in no way affiliated with the Department of Defense, Department of the Air Force, or any other federal or government entity. Virtual United States Air Force is a group of flight simulation enthusiasts with the common interest of promoting enjoyment and cameraderie through the simulation of military operations and procedures utilizing several flight simulation platforms.

Copyright © vUSAF, LLC // 2018-2022 All Rights Reserved